<?xml version="1.0" encoding="UTF-8" standalone="no" ?>
<gpx xmlns="http://www.topografix.com/GPX/1/1" xmlns:xsi="http://www.w3.org/2001/XMLSchema-instance" xsi:schemaLocation="http://www.topografix.com/GPX/1/1 http://www.topografix.com/GPX/1/1/gpx.xsd" version="1.1" creator="VisuGPX - https://www.visugpx.com">
  <metadata>
    <name>StNicolasTertre_20km</name>
    <desc><![CDATA[gnerando]]></desc>
  </metadata>
  <trk>
    <name><![CDATA[StNicolasTertre_20km]]></name>
    <extensions>
      <line xmlns="http://www.topografix.com/GPX/gpx_style/0/2">
        <color>0000FF</color>
        <width>4</width>
      </line>
    </extensions>
    <trkseg>
      <trkpt lat="47.8026" lon="-2.22359">
        <ele>52.4</ele>
        <time>2023-03-22T10:01:49.285Z</time>
        <extensions>
          <visugpx:TrkExtension xmlns:visugpx="https://www.visugpx.com/editgpx/">
            <visugpx:node>1</visugpx:node>
            </visugpx:TrkExtension>
        </extensions>
      </trkpt>
      <trkpt lat="47.8026" lon="-2.22349">
        <ele>52.4</ele>
        <time>2023-03-22T10:01:49.285Z</time>
      </trkpt>
      <trkpt lat="47.80239" lon="-2.22346">
        <ele>51.4</ele>
        <time>2023-03-22T10:01:49.285Z</time>
      </trkpt>
      <trkpt lat="47.80198" lon="-2.2234">
        <ele>49.2</ele>
        <time>2023-03-22T10:01:49.285Z</time>
      </trkpt>
      <trkpt lat="47.80183" lon="-2.22339">
        <ele>48.5</ele>
        <time>2023-03-22T10:01:49.285Z</time>
      </trkpt>
      <trkpt lat="47.80174" lon="-2.2234">
        <ele>48.1</ele>
        <time>2023-03-22T10:01:49.285Z</time>
      </trkpt>
      <trkpt lat="47.80169" lon="-2.22341">
        <ele>47.8</ele>
        <time>2023-03-22T10:01:49.285Z</time>
      </trkpt>
      <trkpt lat="47.80167" lon="-2.22342">
        <ele>47.7</ele>
        <time>2023-03-22T10:01:49.285Z</time>
      </trkpt>
      <trkpt lat="47.80158" lon="-2.22343">
        <ele>47.3</ele>
        <time>2023-03-22T10:01:49.285Z</time>
      </trkpt>
      <trkpt lat="47.80145" lon="-2.22348">
        <ele>46.7</ele>
        <time>2023-03-22T10:01:49.285Z</time>
      </trkpt>
      <trkpt lat="47.80122" lon="-2.22358">
        <ele>45.4</ele>
        <time>2023-03-22T10:01:49.285Z</time>
      </trkpt>
      <trkpt lat="47.80093" lon="-2.2237">
        <ele>44.3</ele>
        <time>2023-03-22T10:01:49.285Z</time>
      </trkpt>
      <trkpt lat="47.80087" lon="-2.22372">
        <ele>44.1</ele>
        <time>2023-03-22T10:01:49.285Z</time>
      </trkpt>
      <trkpt lat="47.80026" lon="-2.22396">
        <ele>41</ele>
        <time>2023-03-22T10:01:49.285Z</time>
        <extensions>
          <visugpx:TrkExtension xmlns:visugpx="https://www.visugpx.com/editgpx/">
            <visugpx:node>2</visugpx:node>
            </visugpx:TrkExtension>
        </extensions>
      </trkpt>
      <trkpt lat="47.80026" lon="-2.22396">
        <ele>41</ele>
        <time>2023-03-22T10:01:49.285Z</time>
        <extensions>
          <visugpx:TrkExtension xmlns:visugpx="https://www.visugpx.com/editgpx/">
            <visugpx:node>2</visugpx:node>
            </visugpx:TrkExtension>
        </extensions>
      </trkpt>
      <trkpt lat="47.80004" lon="-2.22404">
        <ele>40.6</ele>
        <time>2023-03-22T10:02:19.607Z</time>
      </trkpt>
      <trkpt lat="47.79994" lon="-2.22405">
        <ele>40.5</ele>
        <time>2023-03-22T10:02:33.026Z</time>
      </trkpt>
      <trkpt lat="47.79986" lon="-2.22405">
        <ele>40.3</ele>
        <time>2023-03-22T10:02:43.737Z</time>
      </trkpt>
      <trkpt lat="47.79978" lon="-2.22404">
        <ele>40.1</ele>
        <time>2023-03-22T10:02:54.485Z</time>
      </trkpt>
      <trkpt lat="47.79972" lon="-2.22402">
        <ele>40</ele>
        <time>2023-03-22T10:03:02.716Z</time>
      </trkpt>
      <trkpt lat="47.79963" lon="-2.22395">
        <ele>39.7</ele>
        <time>2023-03-22T10:03:16.309Z</time>
      </trkpt>
      <trkpt lat="47.7995" lon="-2.22381">
        <ele>39.1</ele>
        <time>2023-03-22T10:03:37.786Z</time>
      </trkpt>
      <trkpt lat="47.79942" lon="-2.22367">
        <ele>38.9</ele>
        <time>2023-03-22T10:03:54.312Z</time>
      </trkpt>
      <trkpt lat="47.79916" lon="-2.22342">
        <ele>38</ele>
        <time>2023-03-22T10:04:35.739Z</time>
      </trkpt>
      <trkpt lat="47.79903" lon="-2.22332">
        <ele>38</ele>
        <time>2023-03-22T10:04:55.324Z</time>
      </trkpt>
      <trkpt lat="47.79897" lon="-2.22327">
        <ele>37.9</ele>
        <time>2023-03-22T10:05:04.527Z</time>
      </trkpt>
      <trkpt lat="47.79894" lon="-2.22325">
        <ele>37.9</ele>
        <time>2023-03-22T10:05:08.926Z</time>
      </trkpt>
      <trkpt lat="47.79885" lon="-2.22317">
        <ele>38</ele>
        <time>2023-03-22T10:05:22.953Z</time>
      </trkpt>
      <trkpt lat="47.79845" lon="-2.22275">
        <ele>38.6</ele>
        <time>2023-03-22T10:06:28.452Z</time>
      </trkpt>
      <trkpt lat="47.79821" lon="-2.22254">
        <ele>39</ele>
        <time>2023-03-22T10:07:05.703Z</time>
      </trkpt>
      <trkpt lat="47.7982" lon="-2.22252">
        <ele>39</ele>
        <time>2023-03-22T10:07:07.944Z</time>
      </trkpt>
      <trkpt lat="47.79804" lon="-2.22238">
        <ele>39.4</ele>
        <time>2023-03-22T10:07:32.773Z</time>
      </trkpt>
      <trkpt lat="47.79735" lon="-2.22179">
        <ele>41.6</ele>
        <time>2023-03-22T10:09:19.227Z</time>
      </trkpt>
      <trkpt lat="47.79651" lon="-2.22108">
        <ele>42.5</ele>
        <time>2023-03-22T10:11:28.455Z</time>
      </trkpt>
      <trkpt lat="47.79565" lon="-2.22035">
        <ele>42.8</ele>
        <time>2023-03-22T10:13:40.897Z</time>
      </trkpt>
      <trkpt lat="47.7953" lon="-2.22006">
        <ele>43</ele>
        <time>2023-03-22T10:14:34.485Z</time>
      </trkpt>
      <trkpt lat="47.79526" lon="-2.22004">
        <ele>43</ele>
        <time>2023-03-22T10:14:40.130Z</time>
      </trkpt>
      <trkpt lat="47.79522" lon="-2.22003">
        <ele>43</ele>
        <time>2023-03-22T10:14:45.556Z</time>
      </trkpt>
      <trkpt lat="47.7952" lon="-2.21995">
        <ele>43.1</ele>
        <time>2023-03-22T10:14:53.226Z</time>
      </trkpt>
      <trkpt lat="47.79518" lon="-2.21988">
        <ele>43.3</ele>
        <time>2023-03-22T10:15:00.061Z</time>
      </trkpt>
      <trkpt lat="47.79506" lon="-2.2196">
        <ele>43.6</ele>
        <time>2023-03-22T10:15:29.902Z</time>
      </trkpt>
      <trkpt lat="47.79489" lon="-2.21925">
        <ele>44</ele>
        <time>2023-03-22T10:16:08.707Z</time>
      </trkpt>
      <trkpt lat="47.79479" lon="-2.21898">
        <ele>44.7</ele>
        <time>2023-03-22T10:16:36.408Z</time>
      </trkpt>
      <trkpt lat="47.79468" lon="-2.21877">
        <ele>45</ele>
        <time>2023-03-22T10:17:00.333Z</time>
      </trkpt>
      <trkpt lat="47.79456" lon="-2.21858">
        <ele>45.1</ele>
        <time>2023-03-22T10:17:23.763Z</time>
      </trkpt>
      <trkpt lat="47.79442" lon="-2.21841">
        <ele>45.7</ele>
        <time>2023-03-22T10:17:47.926Z</time>
      </trkpt>
      <trkpt lat="47.79422" lon="-2.21821">
        <ele>46</ele>
        <time>2023-03-22T10:18:20.148Z</time>
      </trkpt>
      <trkpt lat="47.79408" lon="-2.21802">
        <ele>46.1</ele>
        <time>2023-03-22T10:18:45.484Z</time>
      </trkpt>
      <trkpt lat="47.79406" lon="-2.21799">
        <ele>46.1</ele>
        <time>2023-03-22T10:18:49.281Z</time>
      </trkpt>
      <trkpt lat="47.79404" lon="-2.21796">
        <ele>46.2</ele>
        <time>2023-03-22T10:18:53.078Z</time>
      </trkpt>
      <trkpt lat="47.79403" lon="-2.21792">
        <ele>46.2</ele>
        <time>2023-03-22T10:18:56.912Z</time>
        <extensions>
          <visugpx:TrkExtension xmlns:visugpx="https://www.visugpx.com/editgpx/">
            <visugpx:node>1</visugpx:node>
            </visugpx:TrkExtension>
        </extensions>
      </trkpt>
      <trkpt lat="47.79402" lon="-2.21788">
        <ele>46.3</ele>
        <time>2023-03-22T10:19:00.746Z</time>
      </trkpt>
      <trkpt lat="47.79402" lon="-2.2178">
        <ele>46.4</ele>
        <time>2023-03-22T10:19:07.932Z</time>
      </trkpt>
      <trkpt lat="47.79402" lon="-2.21772">
        <ele>46.7</ele>
        <time>2023-03-22T10:19:15.118Z</time>
      </trkpt>
      <trkpt lat="47.79404" lon="-2.21763">
        <ele>47</ele>
        <time>2023-03-22T10:19:23.632Z</time>
      </trkpt>
      <trkpt lat="47.79409" lon="-2.21746">
        <ele>47.3</ele>
        <time>2023-03-22T10:19:40.299Z</time>
      </trkpt>
      <trkpt lat="47.79417" lon="-2.21719">
        <ele>47.2</ele>
        <time>2023-03-22T10:20:06.801Z</time>
      </trkpt>
      <trkpt lat="47.79425" lon="-2.2169">
        <ele>49.1</ele>
        <time>2023-03-22T10:20:34.955Z</time>
      </trkpt>
      <trkpt lat="47.79431" lon="-2.21668">
        <ele>49.5</ele>
        <time>2023-03-22T10:20:56.278Z</time>
      </trkpt>
      <trkpt lat="47.79433" lon="-2.21662">
        <ele>49.5</ele>
        <time>2023-03-22T10:21:02.293Z</time>
      </trkpt>
      <trkpt lat="47.79439" lon="-2.21632">
        <ele>49.6</ele>
        <time>2023-03-22T10:21:30.402Z</time>
      </trkpt>
      <trkpt lat="47.79445" lon="-2.216">
        <ele>50.4</ele>
        <time>2023-03-22T10:22:00.236Z</time>
      </trkpt>
      <trkpt lat="47.79457" lon="-2.21532">
        <ele>52.8</ele>
        <time>2023-03-22T10:23:03.371Z</time>
      </trkpt>
      <trkpt lat="47.7947" lon="-2.21463">
        <ele>55.4</ele>
        <time>2023-03-22T10:24:07.722Z</time>
      </trkpt>
      <trkpt lat="47.79484" lon="-2.21401">
        <ele>58.5</ele>
        <time>2023-03-22T10:25:06.457Z</time>
      </trkpt>
      <trkpt lat="47.79488" lon="-2.21366">
        <ele>59.8</ele>
        <time>2023-03-22T10:25:38.337Z</time>
      </trkpt>
      <trkpt lat="47.79491" lon="-2.21347">
        <ele>60.5</ele>
        <time>2023-03-22T10:25:55.863Z</time>
      </trkpt>
      <trkpt lat="47.79495" lon="-2.21291">
        <ele>62.4</ele>
        <time>2023-03-22T10:26:46.429Z</time>
      </trkpt>
      <trkpt lat="47.79496" lon="-2.21266">
        <ele>63.3</ele>
        <time>2023-03-22T10:27:08.916Z</time>
      </trkpt>
      <trkpt lat="47.79496" lon="-2.21246">
        <ele>64</ele>
        <time>2023-03-22T10:27:26.873Z</time>
      </trkpt>
      <trkpt lat="47.79494" lon="-2.21226">
        <ele>64.6</ele>
        <time>2023-03-22T10:27:45.027Z</time>
      </trkpt>
      <trkpt lat="47.79491" lon="-2.21194">
        <ele>65.7</ele>
        <time>2023-03-22T10:28:14.035Z</time>
      </trkpt>
      <trkpt lat="47.79489" lon="-2.21178">
        <ele>65.8</ele>
        <time>2023-03-22T10:28:28.646Z</time>
      </trkpt>
      <trkpt lat="47.79484" lon="-2.21134">
        <ele>66.5</ele>
        <time>2023-03-22T10:29:08.707Z</time>
      </trkpt>
      <trkpt lat="47.79484" lon="-2.21127">
        <ele>66.7</ele>
        <time>2023-03-22T10:29:14.991Z</time>
      </trkpt>
      <trkpt lat="47.79483" lon="-2.21112">
        <ele>67</ele>
        <time>2023-03-22T10:29:28.521Z</time>
      </trkpt>
      <trkpt lat="47.79483" lon="-2.21099">
        <ele>67.3</ele>
        <time>2023-03-22T10:29:40.189Z</time>
      </trkpt>
      <trkpt lat="47.79484" lon="-2.21084">
        <ele>67.6</ele>
        <time>2023-03-22T10:29:53.718Z</time>
      </trkpt>
      <trkpt lat="47.79486" lon="-2.2107">
        <ele>67.7</ele>
        <time>2023-03-22T10:30:06.564Z</time>
      </trkpt>
      <trkpt lat="47.79489" lon="-2.21047">
        <ele>68.1</ele>
        <time>2023-03-22T10:30:27.592Z</time>
      </trkpt>
      <trkpt lat="47.79495" lon="-2.21025">
        <ele>68.2</ele>
        <time>2023-03-22T10:30:48.902Z</time>
      </trkpt>
      <trkpt lat="47.79501" lon="-2.20997">
        <ele>68</ele>
        <time>2023-03-22T10:31:15.279Z</time>
      </trkpt>
      <trkpt lat="47.79514" lon="-2.20947">
        <ele>67.5</ele>
        <time>2023-03-22T10:32:03.396Z</time>
      </trkpt>
      <trkpt lat="47.79529" lon="-2.20889">
        <ele>66</ele>
        <time>2023-03-22T10:32:59.173Z</time>
      </trkpt>
      <trkpt lat="47.79546" lon="-2.20823">
        <ele>65.8</ele>
        <time>2023-03-22T10:34:02.610Z</time>
      </trkpt>
      <trkpt lat="47.79567" lon="-2.20739">
        <ele>62.6</ele>
        <time>2023-03-22T10:35:23.047Z</time>
      </trkpt>
      <trkpt lat="47.79575" lon="-2.20709">
        <ele>61.2</ele>
        <time>2023-03-22T10:35:52.014Z</time>
        <extensions>
          <visugpx:TrkExtension xmlns:visugpx="https://www.visugpx.com/editgpx/">
            <visugpx:node>2</visugpx:node>
            </visugpx:TrkExtension>
        </extensions>
      </trkpt>
      <trkpt lat="47.7963" lon="-2.19986">
        <ele>57</ele>
        <time>2023-03-22T10:46:45Z</time>
        <extensions>
          <visugpx:TrkExtension xmlns:visugpx="https://www.visugpx.com/editgpx/">
            <visugpx:node>3</visugpx:node>
            </visugpx:TrkExtension>
        </extensions>
      </trkpt>
      <trkpt lat="47.79683" lon="-2.19774">
        <ele>60</ele>
        <time>2023-03-22T10:50:08Z</time>
      </trkpt>
      <trkpt lat="47.79809" lon="-2.19658">
        <ele>56</ele>
        <time>2023-03-22T10:53:26Z</time>
      </trkpt>
      <trkpt lat="47.79736" lon="-2.19543">
        <ele>54</ele>
        <time>2023-03-22T10:55:47Z</time>
      </trkpt>
      <trkpt lat="47.79699" lon="-2.1924">
        <ele>46</ele>
        <time>2023-03-22T11:00:23Z</time>
      </trkpt>
      <trkpt lat="47.79822" lon="-2.19179">
        <ele>41</ele>
        <time>2023-03-22T11:03:16Z</time>
      </trkpt>
      <trkpt lat="47.79838" lon="-2.18815">
        <ele>57</ele>
        <time>2023-03-22T11:08:43Z</time>
      </trkpt>
      <trkpt lat="47.80017" lon="-2.18724">
        <ele>44</ele>
        <time>2023-03-22T11:12:56Z</time>
      </trkpt>
      <trkpt lat="47.80058" lon="-2.1859">
        <ele>41</ele>
        <time>2023-03-22T11:15:08Z</time>
      </trkpt>
      <trkpt lat="47.80095" lon="-2.18451">
        <ele>35</ele>
        <time>2023-03-22T11:17:22Z</time>
      </trkpt>
      <trkpt lat="47.80062" lon="-2.17995">
        <ele>38</ele>
        <time>2023-03-22T11:24:13Z</time>
      </trkpt>
      <trkpt lat="47.80034" lon="-2.17813">
        <ele>38</ele>
        <time>2023-03-22T11:27:00Z</time>
      </trkpt>
      <trkpt lat="47.80066" lon="-2.17449">
        <ele>36</ele>
        <time>2023-03-22T11:32:29Z</time>
      </trkpt>
      <trkpt lat="47.8005" lon="-2.17352">
        <ele>34</ele>
        <time>2023-03-22T11:33:59Z</time>
      </trkpt>
      <trkpt lat="47.80095" lon="-2.17018">
        <ele>32</ele>
        <time>2023-03-22T11:39:04Z</time>
      </trkpt>
      <trkpt lat="47.80185" lon="-2.16897">
        <ele>30</ele>
        <time>2023-03-22T11:41:46Z</time>
        <extensions>
          <visugpx:TrkExtension xmlns:visugpx="https://www.visugpx.com/editgpx/">
            <visugpx:node>4</visugpx:node>
            </visugpx:TrkExtension>
        </extensions>
      </trkpt>
      <trkpt lat="47.80185" lon="-2.16897">
        <ele>30</ele>
        <time>2023-03-22T06:09:22Z</time>
        <extensions>
          <visugpx:TrkExtension xmlns:visugpx="https://www.visugpx.com/editgpx/">
            <visugpx:node>5</visugpx:node>
            </visugpx:TrkExtension>
        </extensions>
      </trkpt>
      <trkpt lat="47.80338" lon="-2.16602">
        <ele>23</ele>
        <time>2023-03-22T06:14:56Z</time>
      </trkpt>
      <trkpt lat="47.80452" lon="-2.1656">
        <ele>18</ele>
        <time>2023-03-22T06:17:33Z</time>
      </trkpt>
      <trkpt lat="47.80509" lon="-2.16505">
        <ele>18</ele>
        <time>2023-03-22T06:19:03Z</time>
      </trkpt>
      <trkpt lat="47.8052" lon="-2.16438">
        <ele>19</ele>
        <time>2023-03-22T06:20:05Z</time>
      </trkpt>
      <trkpt lat="47.80605" lon="-2.16493">
        <ele>21</ele>
        <time>2023-03-22T06:22:09Z</time>
      </trkpt>
      <trkpt lat="47.80611" lon="-2.16605">
        <ele>22</ele>
        <time>2023-03-22T06:23:50Z</time>
      </trkpt>
      <trkpt lat="47.80644" lon="-2.16699">
        <ele>25</ele>
        <time>2023-03-22T06:25:25Z</time>
      </trkpt>
      <trkpt lat="47.80644" lon="-2.17018">
        <ele>26</ele>
        <time>2023-03-22T06:30:11Z</time>
      </trkpt>
      <trkpt lat="47.80757" lon="-2.17074">
        <ele>32</ele>
        <time>2023-03-22T06:32:50Z</time>
      </trkpt>
      <trkpt lat="47.80931" lon="-2.17122">
        <ele>41</ele>
        <time>2023-03-22T06:36:46Z</time>
      </trkpt>
      <trkpt lat="47.80916" lon="-2.17301">
        <ele>38</ele>
        <time>2023-03-22T06:39:27Z</time>
      </trkpt>
      <trkpt lat="47.80925" lon="-2.17429">
        <ele>30</ele>
        <time>2023-03-22T06:41:23Z</time>
      </trkpt>
      <trkpt lat="47.81018" lon="-2.17465">
        <ele>27</ele>
        <time>2023-03-22T06:43:31Z</time>
      </trkpt>
      <trkpt lat="47.81019" lon="-2.17593">
        <ele>24</ele>
        <time>2023-03-22T06:45:26Z</time>
      </trkpt>
      <trkpt lat="47.81073" lon="-2.1765">
        <ele>26</ele>
        <time>2023-03-22T06:46:54Z</time>
      </trkpt>
      <trkpt lat="47.81053" lon="-2.17719">
        <ele>27</ele>
        <time>2023-03-22T06:48:01Z</time>
      </trkpt>
      <trkpt lat="47.81187" lon="-2.17806">
        <ele>36</ele>
        <time>2023-03-22T06:51:16Z</time>
      </trkpt>
      <trkpt lat="47.81187" lon="-2.1791">
        <ele>40</ele>
        <time>2023-03-22T06:52:50Z</time>
      </trkpt>
      <trkpt lat="47.81303" lon="-2.18163">
        <ele>50</ele>
        <time>2023-03-22T06:57:24Z</time>
      </trkpt>
      <trkpt lat="47.80935" lon="-2.18184">
        <ele>37</ele>
        <time>2023-03-22T07:05:36Z</time>
      </trkpt>
      <trkpt lat="47.80949" lon="-2.18747">
        <ele>47</ele>
        <time>2023-03-22T07:14:01Z</time>
      </trkpt>
      <trkpt lat="47.81221" lon="-2.18751">
        <ele>49</ele>
        <time>2023-03-22T07:20:04Z</time>
      </trkpt>
      <trkpt lat="47.8124" lon="-2.18805">
        <ele>47</ele>
        <time>2023-03-22T07:20:58Z</time>
      </trkpt>
      <trkpt lat="47.8123" lon="-2.18898">
        <ele>43</ele>
        <time>2023-03-22T07:22:23Z</time>
      </trkpt>
      <trkpt lat="47.8135" lon="-2.18867">
        <ele>54</ele>
        <time>2023-03-22T07:25:05Z</time>
      </trkpt>
      <trkpt lat="47.81381" lon="-2.18969">
        <ele>54</ele>
        <time>2023-03-22T07:26:45Z</time>
      </trkpt>
      <trkpt lat="47.81484" lon="-2.19035">
        <ele>58</ele>
        <time>2023-03-22T07:29:15Z</time>
      </trkpt>
      <trkpt lat="47.81549" lon="-2.19168">
        <ele>59</ele>
        <time>2023-03-22T07:31:42Z</time>
      </trkpt>
      <trkpt lat="47.81624" lon="-2.1902">
        <ele>57</ele>
        <time>2023-03-22T07:34:29Z</time>
      </trkpt>
      <trkpt lat="47.81614" lon="-2.18852">
        <ele>51</ele>
        <time>2023-03-22T07:37:00Z</time>
      </trkpt>
      <trkpt lat="47.81655" lon="-2.18352">
        <ele>41</ele>
        <time>2023-03-22T07:44:31Z</time>
      </trkpt>
      <trkpt lat="47.81635" lon="-2.18127">
        <ele>37</ele>
        <time>2023-03-22T07:47:54Z</time>
      </trkpt>
      <trkpt lat="47.81919" lon="-2.18163">
        <ele>32</ele>
        <time>2023-03-22T07:54:15Z</time>
      </trkpt>
      <trkpt lat="47.8194" lon="-2.18311">
        <ele>30</ele>
        <time>2023-03-22T07:56:30Z</time>
      </trkpt>
      <trkpt lat="47.81895" lon="-2.18459">
        <ele>36</ele>
        <time>2023-03-22T07:58:56Z</time>
      </trkpt>
      <trkpt lat="47.8194" lon="-2.18699">
        <ele>44</ele>
        <time>2023-03-22T08:02:39Z</time>
      </trkpt>
      <trkpt lat="47.82036" lon="-2.18806">
        <ele>50</ele>
        <time>2023-03-22T08:05:19Z</time>
      </trkpt>
      <trkpt lat="47.82275" lon="-2.18872">
        <ele>42</ele>
        <time>2023-03-22T08:10:44Z</time>
      </trkpt>
      <trkpt lat="47.82365" lon="-2.19061">
        <ele>43</ele>
        <time>2023-03-22T08:14:11Z</time>
      </trkpt>
      <trkpt lat="47.82344" lon="-2.19183">
        <ele>43</ele>
        <time>2023-03-22T08:16:04Z</time>
      </trkpt>
      <trkpt lat="47.82496" lon="-2.19224">
        <ele>43</ele>
        <time>2023-03-22T08:19:30Z</time>
      </trkpt>
      <trkpt lat="47.82964" lon="-2.19662">
        <ele>38</ele>
        <time>2023-03-22T08:31:48Z</time>
        <extensions>
          <visugpx:TrkExtension xmlns:visugpx="https://www.visugpx.com/editgpx/">
            <visugpx:node>6</visugpx:node>
            </visugpx:TrkExtension>
        </extensions>
      </trkpt>
      <trkpt lat="47.83322" lon="-2.1988">
        <ele>41.1</ele>
        <time>2023-03-22T08:35:50.915Z</time>
        <extensions>
          <visugpx:TrkExtension xmlns:visugpx="https://www.visugpx.com/editgpx/">
            <visugpx:node>7</visugpx:node>
            </visugpx:TrkExtension>
        </extensions>
      </trkpt>
      <trkpt lat="47.83327" lon="-2.19921">
        <ele>41.7</ele>
        <time>2023-03-22T08:36:08.484Z</time>
      </trkpt>
      <trkpt lat="47.83335" lon="-2.19958">
        <ele>41.4</ele>
        <time>2023-03-22T08:36:24.873Z</time>
      </trkpt>
      <trkpt lat="47.8334" lon="-2.19977">
        <ele>41.7</ele>
        <time>2023-03-22T08:36:33.477Z</time>
      </trkpt>
      <trkpt lat="47.83353" lon="-2.20016">
        <ele>41.6</ele>
        <time>2023-03-22T08:36:51.835Z</time>
      </trkpt>
      <trkpt lat="47.83407" lon="-2.20153">
        <ele>39.4</ele>
        <time>2023-03-22T08:37:58.818Z</time>
      </trkpt>
      <trkpt lat="47.83429" lon="-2.20197">
        <ele>39.6</ele>
        <time>2023-03-22T08:38:21.949Z</time>
      </trkpt>
      <trkpt lat="47.83432" lon="-2.20226">
        <ele>40.1</ele>
        <time>2023-03-22T08:38:34.320Z</time>
        <extensions>
          <visugpx:TrkExtension xmlns:visugpx="https://www.visugpx.com/editgpx/">
            <visugpx:node>8</visugpx:node>
            </visugpx:TrkExtension>
        </extensions>
      </trkpt>
      <trkpt lat="47.83466" lon="-2.20517">
        <ele>51.3</ele>
        <time>2023-03-22T08:40:38.855Z</time>
      </trkpt>
      <trkpt lat="47.83495" lon="-2.20743">
        <ele>57.9</ele>
        <time>2023-03-22T08:42:15.865Z</time>
      </trkpt>
      <trkpt lat="47.83499" lon="-2.20783">
        <ele>58.3</ele>
        <time>2023-03-22T08:42:32.915Z</time>
      </trkpt>
      <trkpt lat="47.83499" lon="-2.20811">
        <ele>59.1</ele>
        <time>2023-03-22T08:42:44.720Z</time>
        <extensions>
          <visugpx:TrkExtension xmlns:visugpx="https://www.visugpx.com/editgpx/">
            <visugpx:node>9</visugpx:node>
            </visugpx:TrkExtension>
        </extensions>
      </trkpt>
      <trkpt lat="47.83499" lon="-2.20811">
        <ele>59</ele>
        <time>2023-03-22T08:42:44.720Z</time>
      </trkpt>
      <trkpt lat="47.83499" lon="-2.20812">
        <ele>59</ele>
        <time>2023-03-22T08:42:45.141Z</time>
      </trkpt>
      <trkpt lat="47.83507" lon="-2.20813">
        <ele>58.6</ele>
        <time>2023-03-22T08:42:50.183Z</time>
      </trkpt>
      <trkpt lat="47.83516" lon="-2.20815">
        <ele>58</ele>
        <time>2023-03-22T08:42:55.898Z</time>
      </trkpt>
      <trkpt lat="47.83541" lon="-2.20826">
        <ele>56.8</ele>
        <time>2023-03-22T08:43:12.270Z</time>
      </trkpt>
      <trkpt lat="47.83584" lon="-2.20844">
        <ele>54.4</ele>
        <time>2023-03-22T08:43:40.323Z</time>
      </trkpt>
      <trkpt lat="47.83643" lon="-2.20868">
        <ele>53.1</ele>
        <time>2023-03-22T08:44:18.736Z</time>
      </trkpt>
      <trkpt lat="47.83688" lon="-2.20885">
        <ele>52.1</ele>
        <time>2023-03-22T08:44:47.894Z</time>
      </trkpt>
      <trkpt lat="47.8371" lon="-2.20894">
        <ele>51.6</ele>
        <time>2023-03-22T08:45:02.223Z</time>
      </trkpt>
      <trkpt lat="47.83727" lon="-2.20898">
        <ele>51.2</ele>
        <time>2023-03-22T08:45:13.032Z</time>
      </trkpt>
      <trkpt lat="47.83751" lon="-2.20898">
        <ele>50.3</ele>
        <time>2023-03-22T08:45:28.106Z</time>
      </trkpt>
      <trkpt lat="47.8377" lon="-2.20897">
        <ele>50.3</ele>
        <time>2023-03-22T08:45:40.047Z</time>
      </trkpt>
      <trkpt lat="47.83782" lon="-2.20897">
        <ele>50.1</ele>
        <time>2023-03-22T08:45:47.584Z</time>
      </trkpt>
      <trkpt lat="47.83788" lon="-2.2091">
        <ele>50.4</ele>
        <time>2023-03-22T08:45:54.235Z</time>
      </trkpt>
      <trkpt lat="47.83802" lon="-2.20948">
        <ele>51</ele>
        <time>2023-03-22T08:46:12.510Z</time>
      </trkpt>
      <trkpt lat="47.83812" lon="-2.20976">
        <ele>50.8</ele>
        <time>2023-03-22T08:46:25.881Z</time>
      </trkpt>
      <trkpt lat="47.83814" lon="-2.20989">
        <ele>50.7</ele>
        <time>2023-03-22T08:46:31.503Z</time>
      </trkpt>
      <trkpt lat="47.83815" lon="-2.20999">
        <ele>50.7</ele>
        <time>2023-03-22T08:46:35.765Z</time>
      </trkpt>
      <trkpt lat="47.83813" lon="-2.21028">
        <ele>50.7</ele>
        <time>2023-03-22T08:46:48.055Z</time>
      </trkpt>
      <trkpt lat="47.83811" lon="-2.21059">
        <ele>50.8</ele>
        <time>2023-03-22T08:47:01.184Z</time>
      </trkpt>
      <trkpt lat="47.83808" lon="-2.21072">
        <ele>50.9</ele>
        <time>2023-03-22T08:47:06.979Z</time>
      </trkpt>
      <trkpt lat="47.83804" lon="-2.21087">
        <ele>51.1</ele>
        <time>2023-03-22T08:47:13.783Z</time>
      </trkpt>
      <trkpt lat="47.83798" lon="-2.211">
        <ele>51.5</ele>
        <time>2023-03-22T08:47:20.434Z</time>
      </trkpt>
      <trkpt lat="47.83793" lon="-2.21109">
        <ele>51.9</ele>
        <time>2023-03-22T08:47:25.359Z</time>
        <extensions>
          <visugpx:TrkExtension xmlns:visugpx="https://www.visugpx.com/editgpx/">
            <visugpx:node>10</visugpx:node>
            </visugpx:TrkExtension>
        </extensions>
      </trkpt>
      <trkpt lat="47.83785" lon="-2.21123">
        <ele>52.3</ele>
        <time>2023-03-22T08:47:33.110Z</time>
      </trkpt>
      <trkpt lat="47.83766" lon="-2.21153">
        <ele>52.8</ele>
        <time>2023-03-22T08:47:50.499Z</time>
      </trkpt>
      <trkpt lat="47.83742" lon="-2.2119">
        <ele>54.3</ele>
        <time>2023-03-22T08:48:12.191Z</time>
      </trkpt>
      <trkpt lat="47.83725" lon="-2.21216">
        <ele>54.9</ele>
        <time>2023-03-22T08:48:27.493Z</time>
      </trkpt>
      <trkpt lat="47.83717" lon="-2.21226">
        <ele>55.2</ele>
        <time>2023-03-22T08:48:34.052Z</time>
      </trkpt>
      <trkpt lat="47.8371" lon="-2.21234">
        <ele>55.4</ele>
        <time>2023-03-22T08:48:39.593Z</time>
      </trkpt>
      <trkpt lat="47.83701" lon="-2.2124">
        <ele>55.8</ele>
        <time>2023-03-22T08:48:45.786Z</time>
      </trkpt>
      <trkpt lat="47.83695" lon="-2.21244">
        <ele>56</ele>
        <time>2023-03-22T08:48:49.914Z</time>
      </trkpt>
      <trkpt lat="47.83687" lon="-2.21248">
        <ele>56.3</ele>
        <time>2023-03-22T08:48:55.214Z</time>
      </trkpt>
      <trkpt lat="47.83673" lon="-2.21255">
        <ele>56.8</ele>
        <time>2023-03-22T08:49:04.489Z</time>
      </trkpt>
      <trkpt lat="47.83663" lon="-2.2126">
        <ele>57.2</ele>
        <time>2023-03-22T08:49:11.114Z</time>
      </trkpt>
      <trkpt lat="47.83655" lon="-2.21266">
        <ele>57.6</ele>
        <time>2023-03-22T08:49:16.739Z</time>
      </trkpt>
      <trkpt lat="47.83635" lon="-2.21282">
        <ele>58.1</ele>
        <time>2023-03-22T08:49:30.997Z</time>
      </trkpt>
      <trkpt lat="47.83611" lon="-2.21303">
        <ele>58.1</ele>
        <time>2023-03-22T08:49:48.479Z</time>
      </trkpt>
      <trkpt lat="47.83572" lon="-2.21338">
        <ele>59.7</ele>
        <time>2023-03-22T08:50:17.076Z</time>
      </trkpt>
      <trkpt lat="47.83543" lon="-2.21363">
        <ele>60.9</ele>
        <time>2023-03-22T08:50:38.120Z</time>
      </trkpt>
      <trkpt lat="47.83519" lon="-2.21384">
        <ele>61.9</ele>
        <time>2023-03-22T08:50:55.602Z</time>
      </trkpt>
      <trkpt lat="47.835" lon="-2.21401">
        <ele>63</ele>
        <time>2023-03-22T08:51:09.522Z</time>
      </trkpt>
      <trkpt lat="47.83486" lon="-2.21412">
        <ele>64</ele>
        <time>2023-03-22T08:51:19.463Z</time>
      </trkpt>
      <trkpt lat="47.83469" lon="-2.21425">
        <ele>65.1</ele>
        <time>2023-03-22T08:51:31.465Z</time>
      </trkpt>
      <trkpt lat="47.83449" lon="-2.21437">
        <ele>65.8</ele>
        <time>2023-03-22T08:51:45.007Z</time>
      </trkpt>
      <trkpt lat="47.83438" lon="-2.21443">
        <ele>66.5</ele>
        <time>2023-03-22T08:51:52.364Z</time>
      </trkpt>
      <trkpt lat="47.8343" lon="-2.21449">
        <ele>67.1</ele>
        <time>2023-03-22T08:51:57.989Z</time>
      </trkpt>
      <trkpt lat="47.8343" lon="-2.21449">
        <ele>67.1</ele>
        <time>2023-03-22T08:51:57.989Z</time>
      </trkpt>
      <trkpt lat="47.8343" lon="-2.21449">
        <ele>67.1</ele>
        <time>2023-03-22T08:51:57.989Z</time>
        <extensions>
          <visugpx:TrkExtension xmlns:visugpx="https://www.visugpx.com/editgpx/">
            <visugpx:node>11</visugpx:node>
            </visugpx:TrkExtension>
        </extensions>
      </trkpt>
      <trkpt lat="47.83436" lon="-2.21799">
        <ele>70.2</ele>
        <time>2023-03-22T08:54:25.606Z</time>
      </trkpt>
      <trkpt lat="47.83438" lon="-2.21839">
        <ele>69.6</ele>
        <time>2023-03-22T08:54:42.517Z</time>
      </trkpt>
      <trkpt lat="47.83451" lon="-2.2196">
        <ele>67</ele>
        <time>2023-03-22T08:55:34.183Z</time>
        <extensions>
          <visugpx:TrkExtension xmlns:visugpx="https://www.visugpx.com/editgpx/">
            <visugpx:node>12</visugpx:node>
            </visugpx:TrkExtension>
        </extensions>
      </trkpt>
      <trkpt lat="47.83453" lon="-2.21986">
        <ele>67</ele>
        <time>2023-03-22T08:55:45.217Z</time>
      </trkpt>
      <trkpt lat="47.83452" lon="-2.22001">
        <ele>67</ele>
        <time>2023-03-22T08:55:51.572Z</time>
      </trkpt>
      <trkpt lat="47.83435" lon="-2.22109">
        <ele>65</ele>
        <time>2023-03-22T08:56:38.343Z</time>
        <extensions>
          <visugpx:TrkExtension xmlns:visugpx="https://www.visugpx.com/editgpx/">
            <visugpx:node>13</visugpx:node>
            </visugpx:TrkExtension>
        </extensions>
      </trkpt>
      <trkpt lat="47.83433" lon="-2.22121">
        <ele>64.9</ele>
        <time>2023-03-22T08:56:43.556Z</time>
      </trkpt>
      <trkpt lat="47.83223" lon="-2.21909">
        <ele>74</ele>
        <time>2023-03-22T08:59:22.892Z</time>
      </trkpt>
      <trkpt lat="47.83213" lon="-2.219">
        <ele>74</ele>
        <time>2023-03-22T08:59:30.230Z</time>
      </trkpt>
      <trkpt lat="47.83195" lon="-2.2189">
        <ele>74</ele>
        <time>2023-03-22T08:59:42.296Z</time>
      </trkpt>
      <trkpt lat="47.83196" lon="-2.21878">
        <ele>74.4</ele>
        <time>2023-03-22T08:59:47.394Z</time>
      </trkpt>
      <trkpt lat="47.83194" lon="-2.21871">
        <ele>74.6</ele>
        <time>2023-03-22T08:59:50.601Z</time>
        <extensions>
          <visugpx:TrkExtension xmlns:visugpx="https://www.visugpx.com/editgpx/">
            <visugpx:node>14</visugpx:node>
            </visugpx:TrkExtension>
        </extensions>
      </trkpt>
      <trkpt lat="47.83183" lon="-2.2184">
        <ele>75</ele>
        <time>2023-03-22T09:00:05.385Z</time>
      </trkpt>
      <trkpt lat="47.83174" lon="-2.21796">
        <ele>75.3</ele>
        <time>2023-03-22T09:00:24.779Z</time>
      </trkpt>
      <trkpt lat="47.83154" lon="-2.21686">
        <ele>77</ele>
        <time>2023-03-22T09:01:12.832Z</time>
      </trkpt>
      <trkpt lat="47.83144" lon="-2.21655">
        <ele>77</ele>
        <time>2023-03-22T09:01:27.334Z</time>
      </trkpt>
      <trkpt lat="47.83135" lon="-2.21632">
        <ele>77.1</ele>
        <time>2023-03-22T09:01:38.559Z</time>
      </trkpt>
      <trkpt lat="47.83073" lon="-2.21527">
        <ele>76</ele>
        <time>2023-03-22T09:02:37.524Z</time>
        <extensions>
          <visugpx:TrkExtension xmlns:visugpx="https://www.visugpx.com/editgpx/">
            <visugpx:node>15</visugpx:node>
            </visugpx:TrkExtension>
        </extensions>
      </trkpt>
      <trkpt lat="47.83016" lon="-2.21514">
        <ele>74.6</ele>
        <time>2023-03-22T09:03:13.744Z</time>
      </trkpt>
      <trkpt lat="47.82974" lon="-2.2149">
        <ele>73</ele>
        <time>2023-03-22T09:03:42Z</time>
        <extensions>
          <visugpx:TrkExtension xmlns:visugpx="https://www.visugpx.com/editgpx/">
            <visugpx:node>16</visugpx:node>
            </visugpx:TrkExtension>
        </extensions>
      </trkpt>
      <trkpt lat="47.82761" lon="-2.21467">
        <ele>54</ele>
        <time>2023-03-22T09:08:27Z</time>
      </trkpt>
      <trkpt lat="47.82618" lon="-2.21485">
        <ele>49</ele>
        <time>2023-03-22T09:11:38Z</time>
      </trkpt>
      <trkpt lat="47.8241" lon="-2.21473">
        <ele>50</ele>
        <time>2023-03-22T09:16:16Z</time>
      </trkpt>
      <trkpt lat="47.82408" lon="-2.21465">
        <ele>50</ele>
        <time>2023-03-22T07:32:03Z</time>
        <extensions>
          <visugpx:TrkExtension xmlns:visugpx="https://www.visugpx.com/editgpx/">
            <visugpx:node>17</visugpx:node>
            </visugpx:TrkExtension>
        </extensions>
      </trkpt>
      <trkpt lat="47.82229" lon="-2.21447">
        <ele>43</ele>
        <time>2023-03-22T07:29:40Z</time>
      </trkpt>
      <trkpt lat="47.8218" lon="-2.21302">
        <ele>43</ele>
        <time>2023-03-22T07:28:12Z</time>
      </trkpt>
      <trkpt lat="47.818" lon="-2.21173">
        <ele>44</ele>
        <time>2023-03-22T07:23:00Z</time>
      </trkpt>
      <trkpt lat="47.81598" lon="-2.21169">
        <ele>57</ele>
        <time>2023-03-22T07:20:19Z</time>
        <extensions>
          <visugpx:TrkExtension xmlns:visugpx="https://www.visugpx.com/editgpx/">
            <visugpx:node>18</visugpx:node>
            </visugpx:TrkExtension>
        </extensions>
      </trkpt>
      <trkpt lat="47.81605" lon="-2.21179">
        <ele>57.6</ele>
        <time>2023-03-22T07:20:11.269Z</time>
      </trkpt>
      <trkpt lat="47.81607" lon="-2.21194">
        <ele>58</ele>
        <time>2023-03-22T07:20:03.084Z</time>
      </trkpt>
      <trkpt lat="47.81608" lon="-2.21212">
        <ele>58.1</ele>
        <time>2023-03-22T07:19:53.417Z</time>
      </trkpt>
      <trkpt lat="47.81607" lon="-2.21227">
        <ele>58.3</ele>
        <time>2023-03-22T07:19:45.349Z</time>
      </trkpt>
      <trkpt lat="47.81603" lon="-2.21267">
        <ele>59</ele>
        <time>2023-03-22T07:19:23.703Z</time>
      </trkpt>
      <trkpt lat="47.81601" lon="-2.21278">
        <ele>59</ele>
        <time>2023-03-22T07:19:17.603Z</time>
      </trkpt>
      <trkpt lat="47.816" lon="-2.21289">
        <ele>59.2</ele>
        <time>2023-03-22T07:19:11.661Z</time>
      </trkpt>
      <trkpt lat="47.81595" lon="-2.21323">
        <ele>59.8</ele>
        <time>2023-03-22T07:18:53.029Z</time>
      </trkpt>
      <trkpt lat="47.81594" lon="-2.21332">
        <ele>60</ele>
        <time>2023-03-22T07:18:48.145Z</time>
      </trkpt>
      <trkpt lat="47.81589" lon="-2.21373">
        <ele>60.3</ele>
        <time>2023-03-22T07:18:25.835Z</time>
      </trkpt>
      <trkpt lat="47.81586" lon="-2.21402">
        <ele>60.9</ele>
        <time>2023-03-22T07:18:10.125Z</time>
      </trkpt>
      <trkpt lat="47.81585" lon="-2.21437">
        <ele>60.9</ele>
        <time>2023-03-22T07:17:51.368Z</time>
      </trkpt>
      <trkpt lat="47.81585" lon="-2.21464">
        <ele>60.9</ele>
        <time>2023-03-22T07:17:36.911Z</time>
      </trkpt>
      <trkpt lat="47.81584" lon="-2.21539">
        <ele>62</ele>
        <time>2023-03-22T07:16:56.744Z</time>
      </trkpt>
      <trkpt lat="47.81582" lon="-2.21624">
        <ele>64</ele>
        <time>2023-03-22T07:16:11.202Z</time>
      </trkpt>
      <trkpt lat="47.81581" lon="-2.21648">
        <ele>63.9</ele>
        <time>2023-03-22T07:15:58.326Z</time>
      </trkpt>
      <trkpt lat="47.81579" lon="-2.21666">
        <ele>63.8</ele>
        <time>2023-03-22T07:15:48.556Z</time>
      </trkpt>
      <trkpt lat="47.81578" lon="-2.21669">
        <ele>63.9</ele>
        <time>2023-03-22T07:15:46.762Z</time>
        <extensions>
          <visugpx:TrkExtension xmlns:visugpx="https://www.visugpx.com/editgpx/">
            <visugpx:node>19</visugpx:node>
            </visugpx:TrkExtension>
        </extensions>
      </trkpt>
      <trkpt lat="47.81576" lon="-2.2168">
        <ele>64.2</ele>
        <time>2023-03-22T07:15:40.657Z</time>
      </trkpt>
      <trkpt lat="47.81572" lon="-2.21696">
        <ele>64.6</ele>
        <time>2023-03-22T07:15:31.510Z</time>
      </trkpt>
      <trkpt lat="47.81557" lon="-2.21735">
        <ele>64.6</ele>
        <time>2023-03-22T07:15:07.430Z</time>
      </trkpt>
      <trkpt lat="47.81549" lon="-2.21754">
        <ele>64.5</ele>
        <time>2023-03-22T07:14:55.414Z</time>
      </trkpt>
      <trkpt lat="47.81543" lon="-2.21769">
        <ele>64.1</ele>
        <time>2023-03-22T07:14:46.059Z</time>
      </trkpt>
      <trkpt lat="47.81536" lon="-2.21787">
        <ele>63.9</ele>
        <time>2023-03-22T07:14:34.913Z</time>
      </trkpt>
      <trkpt lat="47.81515" lon="-2.21841">
        <ele>63.2</ele>
        <time>2023-03-22T07:14:01.474Z</time>
      </trkpt>
      <trkpt lat="47.81504" lon="-2.21876">
        <ele>62.9</ele>
        <time>2023-03-22T07:13:40.766Z</time>
      </trkpt>
      <trkpt lat="47.81501" lon="-2.21892">
        <ele>63.1</ele>
        <time>2023-03-22T07:13:31.864Z</time>
      </trkpt>
      <trkpt lat="47.815" lon="-2.21907">
        <ele>63</ele>
        <time>2023-03-22T07:13:23.786Z</time>
        <extensions>
          <visugpx:TrkExtension xmlns:visugpx="https://www.visugpx.com/editgpx/">
            <visugpx:node>20</visugpx:node>
            </visugpx:TrkExtension>
        </extensions>
      </trkpt>
      <trkpt lat="47.815" lon="-2.21914">
        <ele>63</ele>
        <time>2023-03-22T07:13:20.034Z</time>
      </trkpt>
      <trkpt lat="47.81501" lon="-2.21957">
        <ele>64.1</ele>
        <time>2023-03-22T07:12:56.972Z</time>
      </trkpt>
      <trkpt lat="47.81503" lon="-2.21987">
        <ele>64.2</ele>
        <time>2023-03-22T07:12:40.812Z</time>
      </trkpt>
      <trkpt lat="47.81502" lon="-2.21987">
        <ele>64.1</ele>
        <time>2023-03-22T07:12:40.013Z</time>
        <extensions>
          <visugpx:TrkExtension xmlns:visugpx="https://www.visugpx.com/editgpx/">
            <visugpx:node>21</visugpx:node>
            </visugpx:TrkExtension>
        </extensions>
      </trkpt>
      <trkpt lat="47.8149" lon="-2.21988">
        <ele>63.3</ele>
        <time>2023-03-22T07:12:30.409Z</time>
      </trkpt>
      <trkpt lat="47.81438" lon="-2.21985">
        <ele>59.5</ele>
        <time>2023-03-22T07:11:48.825Z</time>
      </trkpt>
      <trkpt lat="47.81385" lon="-2.21983">
        <ele>55.7</ele>
        <time>2023-03-22T07:11:06.459Z</time>
      </trkpt>
      <trkpt lat="47.81353" lon="-2.21983">
        <ele>53.8</ele>
        <time>2023-03-22T07:10:40.887Z</time>
      </trkpt>
      <trkpt lat="47.81339" lon="-2.21981">
        <ele>53.5</ele>
        <time>2023-03-22T07:10:29.647Z</time>
      </trkpt>
      <trkpt lat="47.8129" lon="-2.21967">
        <ele>53.9</ele>
        <time>2023-03-22T07:09:49.772Z</time>
      </trkpt>
      <trkpt lat="47.81237" lon="-2.2195">
        <ele>54.2</ele>
        <time>2023-03-22T07:09:06.443Z</time>
      </trkpt>
      <trkpt lat="47.81211" lon="-2.21942">
        <ele>54.4</ele>
        <time>2023-03-22T07:08:45.224Z</time>
      </trkpt>
      <trkpt lat="47.81206" lon="-2.2194">
        <ele>54.5</ele>
        <time>2023-03-22T07:08:41.086Z</time>
      </trkpt>
      <trkpt lat="47.81202" lon="-2.21939">
        <ele>54.6</ele>
        <time>2023-03-22T07:08:37.844Z</time>
      </trkpt>
      <trkpt lat="47.81197" lon="-2.21941">
        <ele>54.8</ele>
        <time>2023-03-22T07:08:33.705Z</time>
      </trkpt>
      <trkpt lat="47.81188" lon="-2.21951">
        <ele>55.1</ele>
        <time>2023-03-22T07:08:24.727Z</time>
      </trkpt>
      <trkpt lat="47.81177" lon="-2.2196">
        <ele>55.4</ele>
        <time>2023-03-22T07:08:14.692Z</time>
      </trkpt>
      <trkpt lat="47.81159" lon="-2.2197">
        <ele>55.9</ele>
        <time>2023-03-22T07:07:59.331Z</time>
      </trkpt>
      <trkpt lat="47.81137" lon="-2.21982">
        <ele>56</ele>
        <time>2023-03-22T07:07:40.597Z</time>
      </trkpt>
      <trkpt lat="47.81121" lon="-2.21989">
        <ele>55.7</ele>
        <time>2023-03-22T07:07:27.262Z</time>
      </trkpt>
      <trkpt lat="47.81111" lon="-2.2199">
        <ele>55.6</ele>
        <time>2023-03-22T07:07:19.247Z</time>
      </trkpt>
      <trkpt lat="47.81101" lon="-2.2199">
        <ele>55.3</ele>
        <time>2023-03-22T07:07:11.250Z</time>
      </trkpt>
      <trkpt lat="47.81097" lon="-2.21989">
        <ele>55.1</ele>
        <time>2023-03-22T07:07:08.006Z</time>
        <extensions>
          <visugpx:TrkExtension xmlns:visugpx="https://www.visugpx.com/editgpx/">
            <visugpx:node>22</visugpx:node>
            </visugpx:TrkExtension>
        </extensions>
      </trkpt>
      <trkpt lat="47.81095" lon="-2.21989">
        <ele>55</ele>
        <time>2023-03-22T07:07:06.406Z</time>
      </trkpt>
      <trkpt lat="47.81067" lon="-2.21977">
        <ele>53.5</ele>
        <time>2023-03-22T07:06:43.096Z</time>
      </trkpt>
      <trkpt lat="47.81002" lon="-2.21953">
        <ele>48.9</ele>
        <time>2023-03-22T07:05:49.519Z</time>
      </trkpt>
      <trkpt lat="47.80974" lon="-2.21942">
        <ele>47.1</ele>
        <time>2023-03-22T07:05:26.351Z</time>
      </trkpt>
      <trkpt lat="47.80964" lon="-2.21938">
        <ele>46.4</ele>
        <time>2023-03-22T07:05:18.066Z</time>
      </trkpt>
      <trkpt lat="47.8095" lon="-2.21937">
        <ele>45.4</ele>
        <time>2023-03-22T07:05:06.851Z</time>
      </trkpt>
      <trkpt lat="47.80939" lon="-2.21937">
        <ele>44.6</ele>
        <time>2023-03-22T07:04:58.049Z</time>
      </trkpt>
      <trkpt lat="47.80924" lon="-2.21937">
        <ele>43.5</ele>
        <time>2023-03-22T07:04:46.046Z</time>
      </trkpt>
      <trkpt lat="47.80907" lon="-2.21933">
        <ele>42.7</ele>
        <time>2023-03-22T07:04:32.273Z</time>
      </trkpt>
      <trkpt lat="47.80895" lon="-2.21931">
        <ele>42.2</ele>
        <time>2023-03-22T07:04:22.610Z</time>
      </trkpt>
      <trkpt lat="47.80884" lon="-2.21928">
        <ele>41.8</ele>
        <time>2023-03-22T07:04:13.660Z</time>
      </trkpt>
      <trkpt lat="47.80869" lon="-2.21926">
        <ele>41.3</ele>
        <time>2023-03-22T07:04:01.607Z</time>
      </trkpt>
      <trkpt lat="47.80823" lon="-2.21908">
        <ele>38.4</ele>
        <time>2023-03-22T07:03:23.541Z</time>
      </trkpt>
      <trkpt lat="47.80766" lon="-2.21887">
        <ele>35.6</ele>
        <time>2023-03-22T07:02:36.545Z</time>
      </trkpt>
      <trkpt lat="47.80753" lon="-2.21881">
        <ele>35.1</ele>
        <time>2023-03-22T07:02:25.651Z</time>
      </trkpt>
      <trkpt lat="47.80747" lon="-2.21879">
        <ele>35</ele>
        <time>2023-03-22T07:02:20.729Z</time>
      </trkpt>
      <trkpt lat="47.80738" lon="-2.21875">
        <ele>35</ele>
        <time>2023-03-22T07:02:13.210Z</time>
      </trkpt>
      <trkpt lat="47.80734" lon="-2.21874">
        <ele>35</ele>
        <time>2023-03-22T07:02:09.963Z</time>
      </trkpt>
      <trkpt lat="47.80728" lon="-2.21874">
        <ele>35</ele>
        <time>2023-03-22T07:02:05.159Z</time>
      </trkpt>
      <trkpt lat="47.8072" lon="-2.21874">
        <ele>35</ele>
        <time>2023-03-22T07:01:58.753Z</time>
      </trkpt>
      <trkpt lat="47.80716" lon="-2.21874">
        <ele>35</ele>
        <time>2023-03-22T07:01:55.550Z</time>
      </trkpt>
      <trkpt lat="47.80706" lon="-2.21877">
        <ele>35</ele>
        <time>2023-03-22T07:01:47.381Z</time>
      </trkpt>
      <trkpt lat="47.80696" lon="-2.21881">
        <ele>35</ele>
        <time>2023-03-22T07:01:39.088Z</time>
      </trkpt>
      <trkpt lat="47.80688" lon="-2.21883">
        <ele>35</ele>
        <time>2023-03-22T07:01:32.591Z</time>
      </trkpt>
      <trkpt lat="47.80679" lon="-2.21886">
        <ele>35</ele>
        <time>2023-03-22T07:01:25.204Z</time>
      </trkpt>
      <trkpt lat="47.80648" lon="-2.2189">
        <ele>35.7</ele>
        <time>2023-03-22T07:01:00.281Z</time>
      </trkpt>
      <trkpt lat="47.80648" lon="-2.2189">
        <ele>35.7</ele>
        <time>2023-03-22T07:01:00.281Z</time>
        <extensions>
          <visugpx:TrkExtension xmlns:visugpx="https://www.visugpx.com/editgpx/">
            <visugpx:node>23</visugpx:node>
            </visugpx:TrkExtension>
        </extensions>
      </trkpt>
      <trkpt lat="47.80648" lon="-2.2189">
        <ele>35.7</ele>
        <time>2023-03-22T07:01:00.281Z</time>
      </trkpt>
      <trkpt lat="47.80673" lon="-2.22055">
        <ele>36.8</ele>
        <time>2023-03-22T07:01:00.281Z</time>
      </trkpt>
      <trkpt lat="47.80672" lon="-2.22062">
        <ele>36.8</ele>
        <time>2023-03-22T07:01:00.281Z</time>
      </trkpt>
      <trkpt lat="47.80673" lon="-2.22067">
        <ele>36.8</ele>
        <time>2023-03-22T07:01:00.281Z</time>
      </trkpt>
      <trkpt lat="47.80677" lon="-2.22092">
        <ele>36.9</ele>
        <time>2023-03-22T07:01:00.281Z</time>
      </trkpt>
      <trkpt lat="47.80687" lon="-2.22135">
        <ele>37.3</ele>
        <time>2023-03-22T07:01:00.281Z</time>
      </trkpt>
      <trkpt lat="47.80707" lon="-2.22193">
        <ele>37.5</ele>
        <time>2023-03-22T07:01:00.281Z</time>
      </trkpt>
      <trkpt lat="47.80707" lon="-2.22198">
        <ele>37.7</ele>
        <time>2023-03-22T07:01:00.281Z</time>
      </trkpt>
      <trkpt lat="47.80707" lon="-2.22203">
        <ele>37.9</ele>
        <time>2023-03-22T07:01:00.281Z</time>
      </trkpt>
      <trkpt lat="47.8071" lon="-2.22204">
        <ele>37.8</ele>
        <time>2023-03-22T07:01:00.281Z</time>
        <extensions>
          <visugpx:TrkExtension xmlns:visugpx="https://www.visugpx.com/editgpx/">
            <visugpx:node>24</visugpx:node>
            </visugpx:TrkExtension>
        </extensions>
      </trkpt>
      <trkpt lat="47.80707" lon="-2.22203">
        <ele>37.9</ele>
        <time>2023-03-22T07:01:00.281Z</time>
      </trkpt>
      <trkpt lat="47.807" lon="-2.222">
        <ele>38</ele>
        <time>2023-03-22T07:01:00.281Z</time>
      </trkpt>
      <trkpt lat="47.80687" lon="-2.22199">
        <ele>38.4</ele>
        <time>2023-03-22T07:01:00.281Z</time>
      </trkpt>
      <trkpt lat="47.80676" lon="-2.222">
        <ele>38.9</ele>
        <time>2023-03-22T07:01:00.281Z</time>
      </trkpt>
      <trkpt lat="47.80664" lon="-2.22201">
        <ele>39.3</ele>
        <time>2023-03-22T07:01:00.281Z</time>
      </trkpt>
      <trkpt lat="47.80647" lon="-2.22203">
        <ele>39.8</ele>
        <time>2023-03-22T07:01:00.281Z</time>
      </trkpt>
      <trkpt lat="47.80633" lon="-2.22207">
        <ele>40.2</ele>
        <time>2023-03-22T07:01:00.281Z</time>
      </trkpt>
      <trkpt lat="47.80617" lon="-2.2221">
        <ele>40.8</ele>
        <time>2023-03-22T07:01:00.281Z</time>
      </trkpt>
      <trkpt lat="47.80603" lon="-2.22212">
        <ele>41.3</ele>
        <time>2023-03-22T07:01:00.281Z</time>
      </trkpt>
      <trkpt lat="47.80589" lon="-2.22211">
        <ele>41.8</ele>
        <time>2023-03-22T07:01:00.281Z</time>
      </trkpt>
      <trkpt lat="47.80571" lon="-2.22209">
        <ele>42.9</ele>
        <time>2023-03-22T07:01:00.281Z</time>
      </trkpt>
      <trkpt lat="47.80542" lon="-2.22201">
        <ele>44.6</ele>
        <time>2023-03-22T07:01:00.281Z</time>
      </trkpt>
      <trkpt lat="47.80504" lon="-2.22193">
        <ele>46.7</ele>
        <time>2023-03-22T07:01:00.281Z</time>
      </trkpt>
      <trkpt lat="47.80502" lon="-2.22193">
        <ele>46.9</ele>
        <time>2023-03-22T07:01:00.281Z</time>
      </trkpt>
      <trkpt lat="47.80469" lon="-2.22187">
        <ele>49.3</ele>
        <time>2023-03-22T07:01:00.281Z</time>
      </trkpt>
      <trkpt lat="47.80417" lon="-2.22175">
        <ele>53.7</ele>
        <time>2023-03-22T07:01:00.281Z</time>
      </trkpt>
      <trkpt lat="47.80402" lon="-2.22171">
        <ele>54.9</ele>
        <time>2023-03-22T07:01:00.281Z</time>
      </trkpt>
      <trkpt lat="47.80387" lon="-2.22167">
        <ele>56.2</ele>
        <time>2023-03-22T07:01:00.281Z</time>
      </trkpt>
      <trkpt lat="47.80365" lon="-2.22162">
        <ele>58.7</ele>
        <time>2023-03-22T07:01:00.281Z</time>
      </trkpt>
      <trkpt lat="47.80339" lon="-2.2216">
        <ele>60.8</ele>
        <time>2023-03-22T07:01:00.281Z</time>
      </trkpt>
      <trkpt lat="47.80319" lon="-2.22158">
        <ele>61.5</ele>
        <time>2023-03-22T07:01:00.281Z</time>
      </trkpt>
      <trkpt lat="47.80303" lon="-2.22159">
        <ele>61.4</ele>
        <time>2023-03-22T07:01:00.281Z</time>
        <extensions>
          <visugpx:TrkExtension xmlns:visugpx="https://www.visugpx.com/editgpx/">
            <visugpx:node>25</visugpx:node>
            </visugpx:TrkExtension>
        </extensions>
      </trkpt>
      <trkpt lat="47.803" lon="-2.22159">
        <ele>61.3</ele>
        <time>2023-03-22T07:01:00.281Z</time>
      </trkpt>
      <trkpt lat="47.803" lon="-2.22164">
        <ele>61</ele>
        <time>2023-03-22T07:01:00.281Z</time>
      </trkpt>
      <trkpt lat="47.80292" lon="-2.22195">
        <ele>59.5</ele>
        <time>2023-03-22T07:01:00.281Z</time>
      </trkpt>
      <trkpt lat="47.80277" lon="-2.22246">
        <ele>56.1</ele>
        <time>2023-03-22T07:01:00.281Z</time>
      </trkpt>
      <trkpt lat="47.80274" lon="-2.22255">
        <ele>55.7</ele>
        <time>2023-03-22T07:01:00.281Z</time>
      </trkpt>
      <trkpt lat="47.80265" lon="-2.22288">
        <ele>54.2</ele>
        <time>2023-03-22T07:01:00.281Z</time>
      </trkpt>
      <trkpt lat="47.80261" lon="-2.22312">
        <ele>53.2</ele>
        <time>2023-03-22T07:01:00.281Z</time>
      </trkpt>
      <trkpt lat="47.8026" lon="-2.22349">
        <ele>52.4</ele>
        <time>2023-03-22T07:01:00.281Z</time>
      </trkpt>
      <trkpt lat="47.8026" lon="-2.22359">
        <ele>52.4</ele>
        <time>2023-03-22T07:01:00.281Z</time>
        <extensions>
          <visugpx:TrkExtension xmlns:visugpx="https://www.visugpx.com/editgpx/">
            <visugpx:node>1</visugpx:node>
            </visugpx:TrkExtension>
        </extensions>
      </trkpt>
    </trkseg>
  </trk>
</gpx>